createdAt,value
2022-11-29T00:03:00.737Z,2.69
2022-11-29T00:06:24.031Z,2.64
2022-11-29T00:09:27.755Z,2.64
2022-11-29T00:12:30.515Z,2.61
2022-11-29T00:15:37.099Z,2.61
2022-11-29T00:18:39.996Z,2.59
2022-11-29T00:21:42.740Z,2.61
2022-11-29T00:24:45.668Z,2.62
2022-11-29T00:27:48.763Z,2.64
2022-11-29T00:30:53.115Z,2.63
2022-11-29T00:33:57.030Z,2.63
2022-11-29T00:37:00.023Z,2.60
2022-11-29T00:40:03.223Z,2.58
2022-11-29T00:43:06.173Z,2.52
2022-11-29T00:46:10.026Z,2.53
2022-11-29T00:49:15.727Z,2.52
2022-11-29T00:52:24.659Z,2.50
2022-11-29T00:55:27.395Z,2.50
2022-11-29T00:58:30.496Z,2.48
2022-11-29T01:01:33.317Z,2.48
2022-11-29T01:04:36.277Z,2.48
2022-11-29T01:07:39.295Z,2.46
2022-11-29T01:10:45.566Z,2.47
2022-11-29T01:13:49.450Z,2.45
2022-11-29T01:16:52.346Z,2.46
2022-11-29T01:19:55.209Z,2.44
2022-11-29T01:22:58.702Z,2.44
2022-11-29T01:26:04.939Z,2.42
2022-11-29T01:29:08.045Z,2.41
2022-11-29T01:32:12.681Z,2.38
2022-11-29T01:35:15.443Z,2.38
2022-11-29T01:38:18.706Z,2.34
2022-11-29T01:41:24.852Z,2.32
2022-11-29T01:44:29.511Z,2.29
2022-11-29T01:47:32.758Z,2.27
2022-11-29T01:50:35.578Z,2.26
2022-11-29T01:53:38.693Z,2.22
2022-11-29T01:56:43.869Z,2.18
2022-11-29T01:59:49.238Z,2.14
2022-11-29T02:02:58.177Z,2.12
2022-11-29T02:06:01.391Z,2.10
2022-11-29T02:09:23.095Z,2.05
2022-11-29T02:12:44.491Z,1.97
2022-11-29T02:16:01.660Z,1.91
2022-11-29T02:19:35.078Z,1.87
2022-11-29T02:22:50.429Z,1.78
2022-11-29T02:26:11.390Z,1.73
2022-11-29T02:30:00.951Z,1.64
2022-11-29T02:33:25.538Z,1.57
2022-11-29T02:36:43.589Z,1.51
2022-11-29T02:40:34.151Z,1.46
2022-11-29T02:44:12.499Z,1.40
2022-11-29T02:47:25.242Z,1.39
2022-11-29T02:50:37.162Z,1.35
2022-11-29T02:53:49.858Z,1.32
2022-11-29T02:56:56.146Z,1.29
2022-11-29T03:00:10.138Z,1.27
2022-11-29T03:03:24.172Z,1.24
2022-11-29T03:06:40.281Z,1.24
2022-11-29T03:09:56.771Z,1.23
2022-11-29T03:13:00.426Z,1.23
2022-11-29T03:16:34.015Z,1.27
2022-11-29T03:20:04.928Z,1.27
2022-11-29T03:23:07.616Z,1.32
2022-11-29T03:26:38.094Z,1.34
2022-11-29T03:29:48.464Z,1.36
2022-11-29T03:33:17.682Z,1.40
2022-11-29T03:36:57.834Z,1.39
2022-11-29T03:40:05.925Z,1.42
2022-11-29T03:43:21.784Z,1.45
2022-11-29T03:46:33.837Z,1.46
2022-11-29T03:49:53.011Z,1.47
2022-11-29T03:53:32.002Z,1.48
2022-11-29T03:56:36.167Z,1.48
2022-11-29T03:59:42.035Z,1.48
2022-11-29T04:02:54.149Z,1.48
2022-11-29T04:06:09.148Z,1.48
2022-11-29T04:09:36.127Z,1.49
2022-11-29T04:12:57.883Z,1.49
2022-11-29T04:16:18.819Z,1.47
2022-11-29T04:19:43.664Z,1.43
2022-11-29T04:22:52.287Z,1.45
2022-11-29T04:26:33.592Z,1.45
2022-11-29T04:30:14.623Z,1.47
2022-11-29T04:33:55.638Z,1.46
2022-11-29T04:37:04.471Z,1.42
2022-11-29T04:40:28.813Z,1.41
2022-11-29T04:44:13.711Z,1.43
2022-11-29T04:47:43.067Z,1.43
2022-11-29T04:51:28.799Z,1.42
2022-11-29T04:54:46.436Z,1.42
2022-11-29T04:58:40.614Z,1.40
2022-11-29T05:01:46.267Z,1.40
2022-11-29T05:04:53.583Z,1.36
2022-11-29T05:08:02.930Z,1.36
2022-11-29T05:11:17.522Z,1.35
2022-11-29T05:14:53.552Z,1.33
2022-11-29T05:18:03.873Z,1.34
2022-11-29T05:21:17.939Z,1.28
2022-11-29T05:24:30.879Z,1.28
2022-11-29T05:27:51.446Z,1.24
2022-11-29T05:31:13.891Z,1.21
2022-11-29T05:34:35.220Z,1.12
2022-11-29T05:38:03.595Z,1.09
2022-11-29T05:41:18.455Z,1.05
2022-11-29T05:44:45.201Z,0.99
2022-11-29T05:48:13.152Z,0.97
2022-11-29T05:51:23.143Z,0.96
2022-11-29T05:54:37.881Z,0.93
2022-11-29T05:58:10.455Z,0.91
2022-11-29T06:01:16.193Z,0.89
2022-11-29T06:04:29.068Z,0.83
2022-11-29T06:07:41.242Z,0.84
2022-11-29T06:11:18.638Z,0.82
2022-11-29T06:14:47.927Z,0.78
2022-11-29T06:18:12.145Z,0.75
2022-11-29T06:21:18.292Z,0.68
2022-11-29T06:24:39.990Z,0.66
2022-11-29T06:28:15.540Z,0.69
2022-11-29T06:31:29.093Z,0.68
2022-11-29T06:34:59.225Z,0.63
2022-11-29T06:38:12.850Z,0.62
2022-11-29T06:41:20.637Z,0.63
2022-11-29T06:44:23.791Z,0.63
2022-11-29T06:47:33.579Z,0.67
2022-11-29T06:51:02.270Z,0.68
2022-11-29T06:54:37.347Z,0.69
2022-11-29T06:58:07.936Z,0.71
2022-11-29T07:01:13.691Z,0.75
2022-11-29T07:04:30.428Z,0.80
2022-11-29T07:07:34.517Z,0.83
2022-11-29T07:10:39.897Z,0.84
2022-11-29T07:13:42.982Z,0.87
2022-11-29T07:17:10.280Z,0.91
2022-11-29T07:20:23.080Z,0.93
2022-11-29T07:23:54.702Z,0.97
2022-11-29T07:27:07.318Z,1.00
2022-11-29T07:30:14.419Z,1.03
2022-11-29T07:33:23.226Z,1.06
2022-11-29T07:36:45.438Z,1.10
2022-11-29T07:39:57.312Z,1.14
2022-11-29T07:43:29.557Z,1.17
2022-11-29T07:46:32.548Z,1.20
2022-11-29T07:49:35.420Z,1.22
2022-11-29T07:52:39.440Z,1.30
2022-11-29T07:55:43.056Z,1.31
2022-11-29T07:58:46.242Z,1.29
2022-11-29T08:01:49.234Z,1.27
2022-11-29T08:04:52.389Z,1.33
2022-11-29T08:07:56.268Z,1.27
2022-11-29T08:10:59.544Z,1.26
2022-11-29T08:14:04.432Z,1.27
2022-11-29T08:17:07.256Z,1.20
2022-11-29T08:20:12.418Z,1.21
2022-11-29T08:23:16.214Z,1.22
2022-11-29T08:26:21.011Z,1.22
2022-11-29T08:29:24.253Z,1.27
2022-11-29T08:32:27.803Z,1.30
2022-11-29T08:35:31.177Z,1.36
2022-11-29T08:38:34.486Z,1.34
2022-11-29T08:41:37.719Z,1.39
2022-11-29T08:44:41.060Z,1.29
2022-11-29T08:47:45.018Z,1.32
2022-11-29T08:50:50.677Z,1.46
2022-11-29T08:53:53.571Z,1.55
2022-11-29T09:00:23.800Z,1.61
2022-11-29T09:03:45.145Z,1.76
2022-11-29T09:06:49.993Z,1.73
2022-11-29T09:09:52.848Z,1.93
2022-11-29T09:12:55.842Z,1.94
2022-11-29T09:15:59.270Z,1.88
2022-11-29T09:19:02.624Z,1.93
2022-11-29T09:22:05.574Z,2.03
2022-11-29T09:25:08.769Z,2.21
2022-11-29T09:28:12.893Z,2.06
2022-11-29T09:31:16.611Z,2.09
2022-11-29T09:34:19.409Z,2.09
2022-11-29T09:37:22.203Z,2.07
2022-11-29T09:40:39.333Z,2.09
2022-11-29T09:44:10.075Z,2.20
2022-11-29T09:47:37.101Z,2.14
2022-11-29T09:50:54.717Z,2.22
2022-11-29T09:54:25.254Z,1.99
2022-11-29T09:57:29.253Z,1.98
2022-11-29T10:00:35.156Z,2.11
2022-11-29T10:03:47.101Z,2.35
2022-11-29T10:06:59.483Z,2.22
2022-11-29T10:10:32.730Z,2.28
2022-11-29T10:13:36.333Z,2.50
2022-11-29T10:16:51.095Z,2.63
2022-11-29T10:20:04.879Z,2.71
2022-11-29T10:23:13.729Z,2.60
2022-11-29T10:26:16.528Z,2.66
2022-11-29T10:29:19.870Z,2.59
2022-11-29T10:32:32.205Z,2.74
2022-11-29T10:35:35.017Z,2.73
2022-11-29T10:38:40.851Z,2.80
2022-11-29T10:41:43.670Z,2.82
2022-11-29T10:44:49.526Z,2.80
2022-11-29T10:47:58.646Z,2.82
2022-11-29T10:51:09.291Z,2.80
2022-11-29T10:54:37.582Z,2.74
2022-11-29T10:58:15.168Z,2.88
2022-11-29T11:01:18.912Z,2.99
2022-11-29T11:04:25.974Z,3.10
2022-11-29T11:07:35.870Z,3.11
2022-11-29T11:10:39.644Z,3.15
2022-11-29T11:13:42.502Z,3.25
2022-11-29T11:16:45.311Z,3.31
2022-11-29T11:20:14.491Z,3.35
2022-11-29T11:23:25.333Z,3.51
2022-11-29T11:26:44.028Z,3.73
2022-11-29T11:29:46.870Z,3.64
2022-11-29T11:33:09.533Z,3.61
2022-11-29T11:36:23.646Z,3.79
2022-11-29T11:39:28.158Z,3.72
2022-11-29T11:42:38.157Z,3.88
2022-11-29T11:45:40.858Z,4.14
2022-11-29T11:48:43.649Z,4.20
2022-11-29T11:51:46.510Z,4.27
2022-11-29T11:54:54.238Z,4.57
2022-11-29T11:58:07.818Z,4.61
2022-11-29T12:01:12.494Z,4.46
2022-11-29T12:04:19.699Z,4.79
2022-11-29T12:11:15.315Z,5.66
2022-11-29T12:14:37.403Z,6.17
2022-11-29T12:18:02.567Z,7.07
2022-11-29T12:21:15.380Z,7.72
2022-11-29T12:24:26.232Z,7.87
2022-11-29T12:27:30.308Z,6.96
2022-11-29T12:30:33.872Z,6.66
2022-11-29T12:33:46.820Z,7.52
2022-11-29T12:37:17.089Z,7.05
2022-11-29T12:40:45.124Z,7.18
2022-11-29T12:44:05.915Z,7.42
2022-11-29T12:47:35.325Z,6.75
2022-11-29T12:51:12.029Z,6.06
2022-11-29T12:54:40.334Z,5.64
2022-11-29T12:57:57.714Z,5.22
2022-11-29T13:01:16.375Z,5.59
2022-11-29T13:04:37.903Z,5.76
2022-11-29T13:07:44.009Z,6.13
2022-11-29T13:11:14.455Z,6.25
2022-11-29T13:14:55.712Z,6.25
2022-11-29T13:18:04.768Z,6.51
2022-11-29T13:21:16.425Z,6.17
2022-11-29T13:24:26.113Z,6.04
2022-11-29T13:27:35.063Z,5.95
2022-11-29T13:30:41.007Z,5.79
2022-11-29T13:33:53.810Z,5.56
2022-11-29T13:37:33.323Z,5.47
2022-11-29T13:41:05.385Z,5.37
2022-11-29T13:44:33.838Z,5.32
2022-11-29T13:47:49.392Z,5.16
2022-11-29T13:50:52.202Z,5.04
2022-11-29T13:53:56.314Z,5.07
2022-11-29T13:57:09.564Z,4.97
2022-11-29T14:00:29.085Z,4.86
2022-11-29T14:03:39.540Z,4.78
2022-11-29T14:06:48.849Z,4.66
2022-11-29T14:09:57.167Z,4.64
2022-11-29T14:13:04.653Z,4.55
2022-11-29T14:16:15.924Z,4.51
2022-11-29T14:19:32.858Z,4.43
2022-11-29T14:23:05.508Z,4.28
2022-11-29T14:26:08.251Z,4.22
2022-11-29T14:29:54.020Z,4.13
2022-11-29T14:33:19.113Z,4.04
2022-11-29T14:36:28.770Z,3.94
2022-11-29T14:39:44.558Z,3.84
2022-11-29T14:42:48.592Z,3.75
2022-11-29T14:46:14.726Z,3.62
2022-11-29T14:49:25.428Z,3.57
2022-11-29T14:52:32.169Z,3.45
2022-11-29T14:55:38.625Z,3.38
2022-11-29T14:58:41.461Z,3.28
2022-11-29T15:01:49.262Z,3.19
2022-11-29T15:04:55.148Z,3.04
2022-11-29T15:08:25.860Z,2.92
2022-11-29T15:11:52.232Z,2.75
2022-11-29T15:15:32.324Z,2.59
2022-11-29T15:19:13.469Z,2.41
2022-11-29T15:22:52.578Z,2.28
2022-11-29T15:26:00.500Z,2.17
2022-11-29T15:29:14.626Z,2.05
2022-11-29T15:32:26.187Z,1.91
2022-11-29T15:35:29.299Z,1.70
2022-11-29T15:38:43.323Z,1.53
2022-11-29T15:41:49.183Z,1.48
2022-11-29T15:44:53.425Z,1.37
2022-11-29T15:48:11.673Z,1.29
2022-11-29T15:51:32.235Z,1.09
2022-11-29T15:54:45.122Z,0.99
2022-11-29T15:57:51.038Z,0.91
2022-11-29T16:00:54.693Z,0.80
2022-11-29T16:03:58.643Z,0.74
2022-11-29T16:07:03.816Z,0.66
2022-11-29T16:10:16.396Z,0.53
2022-11-29T16:13:31.966Z,0.47
2022-11-29T16:16:35.788Z,0.39
2022-11-29T16:19:40.988Z,0.31
2022-11-29T16:22:46.371Z,0.19
2022-11-29T16:26:12.223Z,-0.02
2022-11-29T16:29:31.599Z,-0.05
2022-11-29T16:32:36.706Z,-0.29
2022-11-29T16:35:39.812Z,-0.25
2022-11-29T16:38:56.692Z,-0.27
2022-11-29T16:42:20.537Z,-0.33
2022-11-29T16:45:42.639Z,-0.37
2022-11-29T16:48:46.083Z,-0.41
2022-11-29T16:51:49.401Z,-0.48
2022-11-29T16:54:52.531Z,-0.51
2022-11-29T16:57:55.423Z,-0.56
2022-11-29T17:00:58.336Z,-0.57
2022-11-29T17:04:01.609Z,-0.58
2022-11-29T17:07:07.121Z,-0.58
2022-11-29T17:10:15.732Z,-0.63
2022-11-29T17:13:19.535Z,-0.65
2022-11-29T17:16:24.119Z,-0.65
2022-11-29T17:19:29.435Z,-0.72
2022-11-29T17:22:34.041Z,-0.68
2022-11-29T17:25:41.211Z,-0.70
2022-11-29T17:28:48.031Z,-0.70
2022-11-29T17:31:54.027Z,-0.67
2022-11-29T17:34:57.192Z,-0.66
2022-11-29T17:38:00.547Z,-0.67
2022-11-29T17:41:08.923Z,-0.66
2022-11-29T17:44:12.466Z,-0.64
2022-11-29T17:47:15.904Z,-0.63
2022-11-29T17:50:19.365Z,-0.66
2022-11-29T17:53:25.432Z,-0.67
2022-11-29T17:56:30.475Z,-0.66
2022-11-29T17:59:33.842Z,-0.63
2022-11-29T18:02:37.022Z,-0.64
2022-11-29T18:05:40.818Z,-0.64
2022-11-29T18:08:45.967Z,-0.62
2022-11-29T18:11:50.170Z,-0.59
2022-11-29T18:14:53.886Z,-0.59
2022-11-29T18:17:57.883Z,-0.53
2022-11-29T18:21:02.788Z,-0.52
2022-11-29T18:24:07.033Z,-0.49
2022-11-29T18:27:10.317Z,-0.46
2022-11-29T18:30:13.662Z,-0.42
2022-11-29T18:33:16.893Z,-0.43
2022-11-29T18:36:22.190Z,-0.42
2022-11-29T18:39:25.684Z,-0.41
2022-11-29T18:42:29.016Z,-0.41
2022-11-29T18:45:35.666Z,-0.39
2022-11-29T18:48:39.195Z,-0.43
2022-11-29T18:51:46.496Z,-0.44
2022-11-29T18:54:52.386Z,-0.44
2022-11-29T18:57:55.843Z,-0.43
2022-11-29T19:01:10.654Z,-0.43
2022-11-29T19:04:16.290Z,-0.42
2022-11-29T19:07:19.831Z,-0.43
2022-11-29T19:10:22.945Z,-0.44
2022-11-29T19:13:26.251Z,-0.45
2022-11-29T19:16:32.797Z,-0.46
2022-11-29T19:19:37.790Z,-0.46
2022-11-29T19:22:41.501Z,-0.44
2022-11-29T19:25:45.328Z,-0.45
2022-11-29T19:28:49.306Z,-0.49
2022-11-29T19:31:55.374Z,-0.47
2022-11-29T19:34:59.132Z,-0.47
2022-11-29T19:38:04.196Z,-0.47
2022-11-29T19:41:11.981Z,-0.48
2022-11-29T19:44:15.235Z,-0.52
2022-11-29T19:47:18.486Z,-0.55
2022-11-29T19:50:21.976Z,-0.58
2022-11-29T19:53:25.111Z,-0.59
2022-11-29T19:56:29.519Z,-0.61
2022-11-29T19:59:36.025Z,-0.67
2022-11-29T20:02:40.529Z,-0.64
2022-11-29T20:05:53.762Z,-0.62
2022-11-29T20:09:00.083Z,-0.62
2022-11-29T20:12:03.701Z,-0.61
2022-11-29T20:15:08.686Z,-0.56
2022-11-29T20:18:12.955Z,-0.58
2022-11-29T20:21:19.147Z,-0.61
2022-11-29T20:24:25.409Z,-0.58
2022-11-29T20:27:28.728Z,-0.59
2022-11-29T20:30:32.424Z,-0.59
2022-11-29T20:33:35.907Z,-0.60
2022-11-29T20:37:00.960Z,-0.59
2022-11-29T20:40:16.096Z,-0.55
2022-11-29T20:43:29.745Z,-0.54
2022-11-29T20:46:35.729Z,-0.51
2022-11-29T20:49:39.241Z,-0.47
2022-11-29T20:52:57.642Z,-0.42
2022-11-29T20:56:01.221Z,-0.38
2022-11-29T20:59:04.343Z,-0.37
2022-11-29T21:02:07.647Z,-0.35
2022-11-29T21:05:11.029Z,-0.33
2022-11-29T21:08:15.377Z,-0.28
2022-11-29T21:11:18.415Z,-0.25
2022-11-29T21:14:21.653Z,-0.21
2022-11-29T21:17:33.404Z,-0.17
2022-11-29T21:20:36.747Z,-0.13
2022-11-29T21:24:09.789Z,-0.09
2022-11-29T21:27:25.720Z,-0.06
2022-11-29T21:30:34.993Z,-0.04
2022-11-29T21:33:37.881Z,0.01
2022-11-29T21:36:41.010Z,0.04
2022-11-29T21:39:44.002Z,0.09
2022-11-29T21:42:46.832Z,0.11
2022-11-29T21:45:49.720Z,0.13
2022-11-29T21:48:53.134Z,0.14
2022-11-29T21:52:01.245Z,0.14
2022-11-29T21:55:04.369Z,0.15
2022-11-29T21:58:07.180Z,0.19
2022-11-29T22:01:15.457Z,0.22
2022-11-29T22:04:18.768Z,0.24
2022-11-29T22:07:21.576Z,0.26
2022-11-29T22:10:28.270Z,0.28
2022-11-29T22:13:31.199Z,0.31
2022-11-29T22:16:34.219Z,0.35
2022-11-29T22:19:38.014Z,0.36
2022-11-29T22:22:40.763Z,0.39
2022-11-29T22:25:43.508Z,0.42
2022-11-29T22:28:46.206Z,0.43
2022-11-29T22:31:54.628Z,0.46
2022-11-29T22:34:57.323Z,0.48
2022-11-29T22:38:00.173Z,0.50
2022-11-29T22:41:05.489Z,0.52
2022-11-29T22:44:08.725Z,0.54
2022-11-29T22:47:11.426Z,0.56
2022-11-29T22:50:14.230Z,0.58
2022-11-29T22:53:23.249Z,0.61
2022-11-29T22:56:29.293Z,0.65
2022-11-29T22:59:32.149Z,0.67
2022-11-29T23:02:34.935Z,0.69
2022-11-29T23:05:37.742Z,0.68
2022-11-29T23:08:42.071Z,0.70
2022-11-29T23:11:45.841Z,0.73
2022-11-29T23:14:54.497Z,0.74
2022-11-29T23:18:02.538Z,0.75
2022-11-29T23:21:08.397Z,0.76
2022-11-29T23:24:11.340Z,0.77
2022-11-29T23:27:14.125Z,0.78
2022-11-29T23:30:16.872Z,0.77
2022-11-29T23:33:19.735Z,0.78
2022-11-29T23:36:22.590Z,0.78
2022-11-29T23:39:25.343Z,0.79
2022-11-29T23:42:28.061Z,0.80
2022-11-29T23:45:30.809Z,0.81
2022-11-29T23:48:33.638Z,0.80
2022-11-29T23:51:36.330Z,0.80
2022-11-29T23:54:38.964Z,0.80
2022-11-29T23:57:41.916Z,0.80
